Nearby METAR Reports

 

KGRB - Ashwaubenon, Wisconsin, USA
Distance from station: WSW 10mi, 16km
Updated: 11/17/2018 12:53am
Overcast
Overcast
 Wind from NW
Wind: NW 8 mph , 13 km/h
Temperature: 30°F , -1°C
Wind Chill: 22°F , -6°C
Dew Point: 21°F , -6°C
Humidity: 69%
Barometer: 30.16 inHg , 1021.3 hPa
Clouds: Overcast
Visibility: 10 miles , 16 km
Cloud details: Overcast 3500 ft
2018/11/17 06:53 KGRB 170653Z AUTO 32007KT 10SM OVC035 M01/M06 A3016 RMK AO2 SLP221 T10061056
KOCQ - Oconto, Wisconsin, USA
Distance from station: N 24mi, 39km
Updated: 11/17/2018 12:35am
Overcast
Overcast
 Wind from NW
Wind: NW 3 mph , 6 km/h
Temperature: 30°F , -1°C
Dew Point: 18°F , -8°C
Humidity: 59%
Barometer: 30.15 inHg , 1021 hPa
Clouds: Overcast
Visibility: 10 miles , 16 km
Cloud details: Overcast 3400 ft
2018/11/17 06:35 KOCQ 170635Z AUTO 32003KT 10SM OVC034 M01/M08 A3015 RMK AO1 T10091076
KMTW - Manitowac Muni, Wisconsin, USA
Distance from station: SSE 31mi, 49km
Updated: 11/17/2018 12:56am
Overcast
Overcast
 Wind from NW
Wind: NW 6 mph , 9 km/h
Temperature: 30°F , -1°C
Wind Chill: 24°F , -4°C
Dew Point: 23°F , -5°C
Humidity: 75%
Barometer: 30.15 inHg , 1021 hPa
Clouds: Overcast
Visibility: 10 miles , 16 km
Cloud details: Overcast 3200 ft
2018/11/17 06:56 KMTW 170656Z AUTO 31005KT 10SM OVC032 M01/M05 A3015 RMK AO2 SLP235 T10061050 FZRANO
 
KATW - Appleton/Outagam, Wisconsin, USA
Distance from station: WSW 33mi, 54km
Updated: 11/17/2018 12:35am
Overcast
Overcast
 Wind from NW
Wind: NW 5 mph , 7 km/h
Temperature: 30°F , -1°C
Wind Chill: 25°F , -4°C
Dew Point: 19°F , -7°C
Humidity: 64%
Barometer: 30.13 inHg , 1020.3 hPa
Clouds: Overcast
Visibility: 10 miles , 16 km
Cloud details: Partly cloudy 3100 ft
Mostly cloudy 6500 ft
Overcast 8000 ft
2018/11/17 06:35 KATW 170635Z AUTO 32004KT 10SM SCT031 BKN065 OVC080 M01/M07 A3013 RMK AO2
KSUE - Sturgeon Bay, Wisconsin, USA
Distance from station: NE 34mi, 55km
Updated: 11/17/2018 12:56am
Overcast
Overcast
 Wind from NNW
Wind: NNW 10 mph , 17 km/h
Temperature: 30°F , -1°C
Wind Chill: 21°F , -6°C
Dew Point: 21°F , -6°C
Humidity: 69%
Barometer: 30.14 inHg , 1020.7 hPa
Clouds: Overcast
Visibility: 10 miles , 16 km
Cloud details: Overcast 3100 ft
2018/11/17 06:56 KSUE 170656Z AUTO 34009KT 10SM OVC031 M01/M06 A3014 RMK AO2 SLP230 T10061061 FZRANO
KEZS - Shawano Muni, Wisconsin, USA
Distance from station: WNW 36mi, 58km
Updated: 11/17/2018 12:55am
Overcast
Overcast
 Wind from NW
Wind: NW 3 mph , 6 km/h
Temperature: 32°F , 0°C
Dew Point: 19°F , -7°C
Humidity: 60%
Barometer: 30.15 inHg , 1021 hPa
Clouds: Overcast
Visibility: 10 miles , 16 km
Cloud details: Overcast 3300 ft
2018/11/17 06:55 KEZS 170655Z AUTO 32003KT 10SM OVC033 00/M07 A3015 RMK AO2 T10021066
 
KCLI - Clintonville, Wisconsin, USA
Distance from station: W 40mi, 64km
Updated: 11/17/2018 12:55am
Overcast
Overcast
 Wind from NW
Wind: NW 5 mph , 7 km/h
Temperature: 30°F , -1°C
Wind Chill: 25°F , -4°C
Dew Point: 19°F , -7°C
Humidity: 64%
Barometer: 30.16 inHg , 1021.3 hPa
Clouds: Overcast
Visibility: 10 miles , 16 km
Cloud details: Overcast 3000 ft
2018/11/17 06:55 KCLI 170655Z AUTO 32004KT 10SM OVC030 M01/M07 A3016 RMK AO2 T10091070 400301009
KMNM - Menominee, Michigan, USA
Distance from station: NNE 44mi, 72km
Updated: 11/17/2018 12:56am
Overcast
Overcast
 Wind from NNW
Wind: NNW 7 mph , 11 km/h
Temperature: 30°F , -1°C
Wind Chill: 23°F , -5°C
Dew Point: 18°F , -8°C
Humidity: 59%
Barometer: 30.15 inHg , 1021 hPa
Clouds: Overcast
Visibility: 10 miles , 16 km
Cloud details: Overcast 4200 ft
2018/11/17 06:56 KMNM 170656Z AUTO 34006KT 10SM OVC042 M01/M08 A3015 RMK AO2 SLP233 T10111078 FZRANO $
KOSH - Oshkosh, Wisconsin, USA
Distance from station: SW 49mi, 78km
Updated: 11/17/2018 12:53am
Overcast
Overcast
 Wind from WNW
Wind: WNW 5 mph , 7 km/h
Temperature: 30°F , -1°C
Wind Chill: 25°F , -4°C
Dew Point: 25°F , -4°C
Humidity: 80%
Barometer: 30.15 inHg , 1021 hPa
Clouds: Overcast
Visibility: 10 miles , 16 km
Cloud details: Overcast 2800 ft
2018/11/17 06:53 KOSH 170653Z AUTO 29004KT 10SM OVC028 M01/M04 A3015 RMK AO2 SLP223 T10061044